Topsham, Vermont
Current Conditions -  °F | °C
As of 3:51 AM on Sunday 26 Oct 2014 (Local Time) from KMPV Reporting Station
Light Rain Light Rain  
Wind Chill: 44°   Ceiling: 3200
Heat Index: 46°   Visibility: 9mi
Dew Point: 43°   Wind: 5mph
Humidity: 89%   Direction: 340°NNW
Pressure: 29.45"   Gusts: NA
Location:  44.0639°N, 72.2226°W
Report Text: KMPV 260751Z AUTO 34004KT 9SM -RA SCT023 BKN032 OVC047 08/06 A2945 RMK AO2 RAB48 SLP976 P0000 T00780061 $
Loading
Personal Weather Stations






























Interactive Weather Map
Tropical Storm Tracking
New forecast layout! Learn more

10-Day Weather Forecast

Advertisements
Track Severe Weather on mobile